Time;durP1;ratioP1;P1;durP2;ratioP2;P2;SDS_P1;SDS_P2;PMS_P1;PMS_P2;Temp;Humidity;BMP_temperature;BMP_pressure;BME280_temperature;BME280_humidity;BME280_pressure;Samples;Min_cycle;Max_cycle;Signal;HPM_P1;HPM_P2
2023/04/06 00:01:43;;;;;;;22.52;16.05;;;102.80;2227.20;;;;;;5048661;28;20036;-70
2023/04/06 00:04:08;;;;;;;21.27;14.63;;;102.60;2227.20;;;;;;5041981;28;20033;-71
2023/04/06 00:06:34;;;;;;;39.47;21.00;;;102.60;2227.20;;;;;;5042952;28;20446;-71
2023/04/06 00:09:00;;;;;;;22.10;14.07;;;102.80;2227.20;;;;;;5048894;28;20499;-72
2023/04/06 00:11:26;;;;;;;42.15;22.98;;;102.70;2227.20;;;;;;5049215;28;20028;-70
2023/04/06 00:13:52;;;;;;;22.65;15.25;;;102.60;2227.20;;;;;;5048739;28;20028;-71
2023/04/06 00:16:18;;;;;;;23.85;15.63;;;102.70;2227.20;;;;;;5048849;28;20025;-71
2023/04/06 00:18:44;;;;;;;33.38;20.40;;;102.70;2227.20;;;;;;5048895;28;20025;-70
2023/04/06 00:21:14;;;;;;;43.33;23.50;;;102.70;2227.20;;;;;;5048310;28;20108;-72
2023/04/06 00:23:40;;;;;;;124.95;61.20;;;102.70;2227.20;;;;;;5023655;28;20036;-71
2023/04/06 00:26:06;;;;;;;26.70;15.57;;;102.80;2227.20;;;;;;5049050;28;20028;-71
2023/04/06 00:28:32;;;;;;;20.92;15.13;;;102.80;2227.20;;;;;;5048869;28;20033;-69
2023/04/06 00:30:57;;;;;;;20.73;12.93;;;102.80;2227.20;;;;;;5048614;28;20029;-74
2023/04/06 00:33:23;;;;;;;21.60;13.90;;;102.80;2227.20;;;;;;5048655;28;20047;-73
2023/04/06 00:35:49;;;;;;;21.27;13.02;;;102.80;2227.20;;;;;;5048562;28;20402;-73
2023/04/06 00:38:16;;;;;;;23.85;14.88;;;102.80;2227.20;;;;;;5048512;28;20075;-73
2023/04/06 00:40:44;;;;;;;22.15;15.63;;;102.80;2227.20;;;;;;5048524;28;20057;-71
2023/04/06 00:43:10;;;;;;;24.23;17.30;;;102.90;2227.20;;;;;;5048539;28;20379;-73
2023/04/06 00:45:38;;;;;;;21.42;13.02;;;102.90;2227.20;;;;;;5048638;28;20017;-70
2023/04/06 00:48:04;;;;;;;25.42;17.05;;;102.90;2227.20;;;;;;5048745;28;20029;-71
2023/04/06 00:50:30;;;;;;;23.67;15.48;;;102.80;2227.20;;;;;;5046384;28;20033;-72
2023/04/06 00:52:56;;;;;;;29.73;16.00;;;103.00;2227.20;;;;;;5040728;28;20021;-71
2023/04/06 00:55:22;;;;;;;33.47;19.27;;;102.90;2227.20;;;;;;5043230;28;20031;-70
2023/04/06 00:57:49;;;;;;;28.33;18.63;;;102.90;2227.20;;;;;;5048653;28;20471;-71
2023/04/06 01:00:16;;;;;;;61.38;32.40;;;103.00;2227.20;;;;;;5048476;28;20033;-71
2023/04/06 01:02:42;;;;;;;61.10;31.35;;;103.00;2227.20;;;;;;5039532;28;20048;-72
2023/04/06 01:05:08;;;;;;;24.42;15.85;;;103.00;2227.20;;;;;;5043672;28;20037;-70
2023/04/06 01:07:34;;;;;;;26.13;16.10;;;102.80;2227.20;;;;;;5048625;28;20527;-70
2023/04/06 01:10:00;;;;;;;23.17;16.05;;;102.80;2227.20;;;;;;5050344;28;20112;-70
2023/04/06 01:12:25;;;;;;;29.20;16.95;;;102.80;2227.20;;;;;;5052343;28;20383;-70
2023/04/06 01:14:51;;;;;;;25.80;17.38;;;102.80;2227.20;;;;;;5052082;28;20063;-70
2023/04/06 01:17:17;;;;;;;27.77;17.45;;;102.90;2227.20;;;;;;5052037;28;20455;-70
2023/04/06 01:19:44;;;;;;;118.95;59.88;;;102.80;2227.20;;;;;;5050379;28;20033;-70
2023/04/06 01:22:15;;;;;;;26.67;18.13;;;102.90;2227.20;;;;;;5040148;28;20056;-73
2023/04/06 01:24:41;;;;;;;27.15;16.00;;;102.90;2227.20;;;;;;5051878;28;20025;-71
2023/04/06 01:27:07;;;;;;;59.10;33.20;;;102.80;2227.20;;;;;;5052085;28;20031;-70
2023/04/06 01:29:33;;;;;;;113.88;54.33;;;102.80;2227.20;;;;;;5051579;28;20028;-74
2023/04/06 01:31:58;;;;;;;60.92;33.05;;;102.80;2227.20;;;;;;5051873;28;20043;-71
2023/04/06 01:34:24;;;;;;;67.95;36.15;;;102.70;2227.20;;;;;;5038322;28;20061;-71
2023/04/06 01:36:50;;;;;;;61.45;31.73;;;102.80;2227.20;;;;;;5045149;28;20087;-71
2023/04/06 01:39:16;;;;;;;37.83;20.33;;;102.80;2227.20;;;;;;5044272;28;20348;-70
2023/04/06 01:41:41;;;;;;;47.83;26.40;;;102.90;2227.20;;;;;;5050898;28;20024;-70
2023/04/06 01:44:07;;;;;;;55.90;28.83;;;102.90;2227.20;;;;;;5051831;28;20115;-73
2023/04/06 01:46:33;;;;;;;36.00;22.67;;;103.00;2227.20;;;;;;5051239;28;20025;-74
2023/04/06 01:48:59;;;;;;;43.28;23.65;;;102.90;2227.20;;;;;;5051437;28;20598;-71
2023/04/06 01:51:25;;;;;;;27.42;18.00;;;103.00;2227.20;;;;;;5051098;28;20048;-70
2023/04/06 01:53:51;;;;;;;55.17;27.10;;;103.00;2227.20;;;;;;5051364;28;20471;-70
2023/04/06 01:56:17;;;;;;;29.63;17.20;;;103.10;2227.20;;;;;;5051604;28;20025;-71
2023/04/06 01:58:42;;;;;;;75.25;43.92;;;103.00;2227.20;;;;;;5051351;28;20021;-73
2023/04/06 02:01:08;;;;;;;66.30;36.35;;;103.00;2227.20;;;;;;5051496;28;20113;-71
2023/04/06 02:03:35;;;;;;;138.70;66.07;;;103.00;2227.20;;;;;;5050634;28;20064;-70
2023/04/06 02:06:00;;;;;;;55.95;27.55;;;103.00;2227.20;;;;;;5050692;28;20492;-71
2023/04/06 02:08:26;;;;;;;90.22;45.30;;;103.10;2227.20;;;;;;5051575;28;20532;-70
2023/04/06 02:10:52;;;;;;;94.95;47.28;;;103.20;2227.20;;;;;;5050761;28;20023;-70
2023/04/06 02:13:18;;;;;;;83.35;43.70;;;103.10;2227.20;;;;;;5050132;28;20052;-73
2023/04/06 02:15:43;;;;;;;110.47;55.13;;;103.10;2227.20;;;;;;5050569;28;20031;-70
2023/04/06 02:18:09;;;;;;;113.18;54.42;;;103.20;2227.20;;;;;;5050183;28;20116;-70
2023/04/06 02:20:35;;;;;;;384.05;169.80;;;103.20;2227.20;;;;;;5040600;28;20531;-71
2023/04/06 02:23:01;;;;;;;217.82;103.35;;;103.20;2227.20;;;;;;5044239;28;20140;-73
2023/04/06 02:25:27;;;;;;;200.23;99.82;;;103.20;2227.20;;;;;;5050687;28;20029;-70
2023/04/06 02:27:54;;;;;;;103.90;54.33;;;103.30;2227.20;;;;;;5050069;28;20013;-70
2023/04/06 02:30:19;;;;;;;63.13;34.58;;;103.20;2227.20;;;;;;5050671;28;20033;-70
2023/04/06 02:32:45;;;;;;;138.77;73.93;;;103.30;2227.20;;;;;;5049674;28;20017;-71
2023/04/06 02:35:11;;;;;;;83.93;43.53;;;103.20;2227.20;;;;;;5049761;28;20037;-72
2023/04/06 02:37:36;;;;;;;40.15;23.95;;;103.10;2227.20;;;;;;5049445;28;20080;-71
2023/04/06 02:40:03;;;;;;;29.45;17.48;;;103.20;2227.20;;;;;;5050037;28;20029;-70
2023/04/06 02:42:29;;;;;;;22.17;14.38;;;103.30;2227.20;;;;;;5050331;28;20040;-70
2023/04/06 02:44:54;;;;;;;31.02;19.67;;;103.30;2227.20;;;;;;5050015;28;20025;-71
2023/04/06 02:47:20;;;;;;;27.05;18.20;;;103.30;2227.20;;;;;;5049834;28;20043;-72
2023/04/06 02:49:47;;;;;;;28.25;17.17;;;103.30;2227.20;;;;;;5050113;28;20048;-70
2023/04/06 02:52:13;;;;;;;30.33;18.15;;;128.00;2252.80;;;;;;5049581;28;20443;-70
2023/04/06 02:54:39;;;;;;;25.73;16.90;;;128.00;2252.80;;;;;;5049867;28;20428;-70
2023/04/06 02:57:05;;;;;;;22.92;14.93;;;128.00;2252.80;;;;;;5049211;28;20036;-70
2023/04/06 02:59:31;;;;;;;21.40;15.07;;;103.30;2227.20;;;;;;5049710;28;20391;-70
2023/04/06 03:01:57;;;;;;;24.02;14.70;;;103.30;2227.20;;;;;;5049286;28;20037;-69
2023/04/06 03:04:25;;;;;;;17.23;12.30;;;103.20;2227.20;;;;;;5049271;28;20026;-71
2023/04/06 03:06:51;;;;;;;20.88;15.52;;;103.20;2227.20;;;;;;5049228;28;20063;-73
2023/04/06 03:09:17;;;;;;;17.58;12.75;;;103.20;2227.20;;;;;;5049602;28;20025;-72
2023/04/06 03:11:42;;;;;;;20.38;12.25;;;103.20;2227.20;;;;;;5049288;28;20021;-72
2023/04/06 03:14:08;;;;;;;18.48;11.70;;;103.10;2227.20;;;;;;5049521;28;20037;-73
2023/04/06 03:16:34;;;;;;;19.33;12.32;;;103.20;2227.20;;;;;;5049221;28;20029;-70
2023/04/06 03:19:00;;;;;;;16.33;11.27;;;103.10;2227.20;;;;;;5049271;28;20049;-71
2023/04/06 03:21:25;;;;;;;16.40;12.02;;;103.00;2227.20;;;;;;5049138;28;20052;-71
2023/04/06 03:23:51;;;;;;;16.02;12.98;;;103.10;2227.20;;;;;;5049030;28;20035;-71
2023/04/06 03:26:17;;;;;;;20.15;11.80;;;103.00;2227.20;;;;;;5049377;28;20025;-71
2023/04/06 03:28:43;;;;;;;19.23;12.57;;;103.00;2227.20;;;;;;5049096;28;20037;-71
2023/04/06 03:31:09;;;;;;;17.10;11.38;;;103.00;2227.20;;;;;;5048993;28;20044;-73
2023/04/06 03:33:34;;;;;;;16.05;11.02;;;103.00;2227.20;;;;;;5048664;28;20494;-72
2023/04/06 03:36:00;;;;;;;19.05;12.05;;;102.90;2227.20;;;;;;5048560;28;20032;-71
2023/04/06 03:38:26;;;;;;;18.60;12.25;;;103.00;2227.20;;;;;;5049167;28;20056;-72
2023/04/06 03:40:51;;;;;;;16.35;12.20;;;103.00;2227.20;;;;;;5048841;28;20467;-72
2023/04/06 03:43:17;;;;;;;16.38;12.55;;;103.00;2227.20;;;;;;5039596;28;20052;-72
2023/04/06 03:45:43;;;;;;;20.77;12.10;;;103.00;2227.20;;;;;;5044869;28;20064;-72
2023/04/06 03:48:09;;;;;;;17.42;11.80;;;102.90;2227.20;;;;;;5048671;28;20607;-71
2023/04/06 03:50:34;;;;;;;21.67;12.27;;;102.90;2227.20;;;;;;5048213;28;20060;-72
2023/04/06 03:53:02;;;;;;;41.17;27.45;;;102.90;2227.20;;;;;;5048700;28;20029;-71
2023/04/06 03:55:28;;;;;;;20.48;15.07;;;103.00;2227.20;;;;;;5048966;28;20372;-70
2023/04/06 03:57:54;;;;;;;21.15;14.10;;;103.00;2227.20;;;;;;5048975;28;20455;-70
2023/04/06 04:00:20;;;;;;;20.17;13.90;;;103.10;2227.20;;;;;;5048498;28;20066;-70
2023/04/06 04:02:46;;;;;;;26.30;13.48;;;103.00;2227.20;;;;;;5048670;28;20040;-70
2023/04/06 04:05:11;;;;;;;17.42;11.20;;;103.00;2227.20;;;;;;5047876;28;20021;-70
2023/04/06 04:07:37;;;;;;;23.02;14.80;;;103.00;2227.20;;;;;;5048740;28;20032;-70
2023/04/06 04:10:03;;;;;;;20.75;12.90;;;103.00;2227.20;;;;;;5048499;28;20040;-70
2023/04/06 04:12:29;;;;;;;18.05;12.13;;;103.00;2227.20;;;;;;5048720;28;20040;-71
2023/04/06 04:14:55;;;;;;;22.48;12.20;;;103.00;2227.20;;;;;;5046351;28;20025;-70
2023/04/06 04:17:21;;;;;;;19.00;11.75;;;103.00;2227.20;;;;;;5037616;28;20498;-70
2023/04/06 04:19:47;;;;;;;21.10;12.10;;;102.90;2227.20;;;;;;5048530;28;20487;-70
2023/04/06 04:22:13;;;;;;;22.08;15.07;;;102.90;2227.20;;;;;;5048099;28;20037;-70
2023/04/06 04:24:39;;;;;;;21.23;15.68;;;102.90;2227.20;;;;;;5048460;28;20025;-69
2023/04/06 04:27:05;;;;;;;23.13;14.95;;;103.00;2227.20;;;;;;5048358;28;20033;-70
2023/04/06 04:29:30;;;;;;;23.38;12.25;;;103.00;2227.20;;;;;;5047967;28;20095;-71
2023/04/06 04:31:56;;;;;;;16.35;12.27;;;103.10;2227.20;;;;;;5048810;28;20066;-70
2023/04/06 04:34:25;;;;;;;17.95;13.07;;;103.00;2227.20;;;;;;5047756;28;20499;-70
2023/04/06 04:36:52;;;;;;;19.52;13.23;;;103.00;2227.20;;;;;;5047525;28;20040;-70
2023/04/06 04:39:18;;;;;;;21.33;14.30;;;103.10;2227.20;;;;;;5048378;28;20041;-70
2023/04/06 04:41:44;;;;;;;16.35;12.05;;;103.20;2227.20;;;;;;5034401;28;20076;-70
2023/04/06 04:44:09;;;;;;;21.90;12.82;;;103.10;2227.20;;;;;;5037787;28;20033;-70
2023/04/06 04:46:35;;;;;;;20.52;12.07;;;103.20;2227.20;;;;;;5032680;28;20075;-72
2023/04/06 04:49:01;;;;;;;21.60;15.00;;;103.10;2227.20;;;;;;5046730;28;20449;-71
2023/04/06 04:51:27;;;;;;;23.02;14.00;;;103.10;2227.20;;;;;;5040497;28;20475;-71
2023/04/06 04:53:53;;;;;;;19.73;13.07;;;103.20;2227.20;;;;;;5045221;28;20022;-71
2023/04/06 04:56:19;;;;;;;21.00;14.70;;;103.30;2227.20;;;;;;5044252;28;20087;-70
2023/04/06 04:58:45;;;;;;;19.00;13.48;;;103.30;2227.20;;;;;;5047723;28;20021;-70
2023/04/06 05:01:10;;;;;;;20.55;13.38;;;103.30;2227.20;;;;;;5042937;28;20375;-72
2023/04/06 05:03:38;;;;;;;18.73;12.40;;;128.00;2252.80;;;;;;5032196;28;20471;-71
2023/04/06 05:06:04;;;;;;;28.33;18.23;;;128.10;2252.80;;;;;;5040839;28;20479;-72
2023/04/06 05:08:30;;;;;;;26.25;14.88;;;128.00;2252.80;;;;;;5052513;28;20035;-70
2023/04/06 05:10:56;;;;;;;18.27;13.52;;;128.00;2252.80;;;;;;5052611;28;20021;-72
2023/04/06 05:13:22;;;;;;;30.52;18.60;;;128.00;2252.80;;;;;;5051977;28;20071;-71
2023/04/06 05:15:48;;;;;;;163.38;87.95;;;128.00;2252.80;;;;;;5052217;28;20052;-71
2023/04/06 05:18:14;;;;;;;208.98;101.75;;;128.00;2252.80;;;;;;5051650;28;20120;-72
2023/04/06 05:20:40;;;;;;;79.95;46.83;;;128.00;2252.80;;;;;;5052214;28;20036;-72
2023/04/06 05:23:06;;;;;;;125.43;58.10;;;128.10;2252.80;;;;;;5051560;28;20044;-72
2023/04/06 05:25:32;;;;;;;57.20;30.05;;;128.10;2252.80;;;;;;5052120;28;20077;-72
2023/04/06 05:27:58;;;;;;;183.30;107.28;;;128.20;2252.80;;;;;;5052101;28;20036;-71
2023/04/06 05:30:24;;;;;;;171.75;99.78;;;128.20;2252.80;;;;;;5051547;28;20029;-72
2023/04/06 05:32:50;;;;;;;217.45;113.85;;;128.30;2252.80;;;;;;5048755;28;20025;-71
2023/04/06 05:35:17;;;;;;;204.90;114.60;;;128.40;2252.80;;;;;;5041954;28;20037;-71
2023/04/06 05:37:43;;;;;;;255.55;140.40;;;128.40;2252.80;;;;;;5051016;28;20044;-72
2023/04/06 05:40:09;;;;;;;50.70;33.20;;;128.50;2252.80;;;;;;5051878;28;20029;-73
2023/04/06 05:42:42;;;;;;;109.50;59.03;;;128.40;2252.80;;;;;;5051241;28;20033;-72
2023/04/06 05:45:10;;;;;;;61.70;37.30;;;128.50;2252.80;;;;;;5051960;28;20025;-72
2023/04/06 05:47:37;;;;;;;49.25;30.65;;;128.40;2252.80;;;;;;5051361;28;20391;-74
2023/04/06 05:50:03;;;;;;;29.27;20.80;;;128.50;2252.80;;;;;;5051324;28;20021;-72
2023/04/06 05:52:29;;;;;;;41.30;27.95;;;128.60;2252.80;;;;;;5051355;28;20475;-77
2023/04/06 05:54:54;;;;;;;73.82;51.05;;;128.60;2252.80;;;;;;5051432;28;20032;-78
2023/04/06 05:57:20;;;;;;;55.15;36.88;;;128.60;2252.80;;;;;;5051079;28;20025;-73
2023/04/06 05:59:46;;;;;;;55.42;37.83;;;128.60;2252.80;;;;;;5051495;28;20506;-74
2023/04/06 06:02:12;;;;;;;23.33;17.02;;;128.70;2252.80;;;;;;5050454;28;20537;-76
2023/04/06 06:04:37;;;;;;;30.60;20.52;;;128.70;2252.80;;;;;;5051189;28;20025;-75
2023/04/06 06:07:03;;;;;;;50.17;33.97;;;128.60;2252.80;;;;;;5050493;28;20029;-74
2023/04/06 06:09:29;;;;;;;92.35;66.38;;;128.70;2252.80;;;;;;5051343;28;20467;-75
2023/04/06 06:11:55;;;;;;;91.53;62.90;;;128.90;2252.80;;;;;;5050832;28;20021;-76
2023/04/06 06:14:21;;;;;;;31.70;22.63;;;153.60;2252.80;;;;;;5051019;28;20109;-77
2023/04/06 06:16:47;;;;;;;47.17;32.38;;;128.90;2252.80;;;;;;5051039;28;20096;-77
2023/04/06 06:19:13;;;;;;;42.55;30.38;;;153.60;2252.80;;;;;;5051336;28;20064;-78
2023/04/06 06:21:39;;;;;;;40.85;28.40;;;153.60;2252.80;;;;;;5050850;28;20028;-79
2023/04/06 06:24:05;;;;;;;23.02;17.33;;;153.60;2252.80;;;;;;5050854;28;20029;-79
2023/04/06 06:26:31;;;;;;;25.83;19.77;;;154.00;2252.80;;;;;;5050674;28;20086;-80
2023/04/06 06:28:57;;;;;;;57.80;41.35;;;153.80;2252.80;;;;;;5039682;28;20479;-80
2023/04/06 06:31:22;;;;;;;39.70;29.13;;;153.80;2252.80;;;;;;5043072;28;20531;-80
2023/04/06 06:33:52;;;;;;;18.63;12.60;;;153.80;2252.80;;;;;;5042269;28;20067;-75
2023/04/06 06:36:18;;;;;;;26.13;17.55;;;153.80;2252.80;;;;;;5050362;28;20036;-75
2023/04/06 06:38:44;;;;;;;26.38;20.13;;;153.80;2252.80;;;;;;5050535;28;20041;-78
2023/04/06 06:41:10;;;;;;;18.50;14.85;;;154.00;2252.80;;;;;;5050314;28;20021;-78
2023/04/06 06:43:36;;;;;;;68.72;39.75;;;154.10;2252.80;;;;;;5050576;28;20569;-72
2023/04/06 06:46:02;;;;;;;426.70;237.73;;;154.10;2252.80;;;;;;5050305;28;20074;-75
2023/04/06 06:48:28;;;;;;;242.98;131.35;;;179.20;2252.80;;;;;;5050523;28;20102;-76
2023/04/06 06:50:55;;;;;;;179.07;100.80;;;154.30;2252.80;;;;;;5049855;28;20052;-76
2023/04/06 06:53:20;;;;;;;90.28;51.58;;;154.20;2252.80;;;;;;5050038;28;20204;-74
2023/04/06 06:55:48;;;;;;;26.88;19.73;;;154.30;2252.80;;;;;;5050430;28;20024;-74
2023/04/06 06:58:14;;;;;;;183.65;101.78;;;154.50;2252.80;;;;;;5050105;28;20029;-74
2023/04/06 07:00:40;;;;;;;74.35;43.30;;;179.30;2227.20;;;;;;5050327;28;20111;-75
2023/04/06 07:03:06;;;;;;;328.85;181.02;;;179.40;2227.20;;;;;;5050186;28;20120;-74
2023/04/06 07:05:31;;;;;;;35.75;22.10;;;179.40;2201.60;;;;;;5049707;28;20371;-77
2023/04/06 07:07:57;;;;;;;64.05;33.05;;;179.40;2201.60;;;;;;5049603;28;20108;-72
2023/04/06 07:10:23;;;;;;;79.60;42.78;;;179.50;2201.60;;;;;;5050074;28;20817;-74
2023/04/06 07:12:49;;;;;;;17.77;13.13;;;179.60;2201.60;;;;;;5050334;28;20033;-75
2023/04/06 07:15:15;;;;;;;20.48;14.05;;;179.60;2201.60;;;;;;5049642;28;20021;-77
2023/04/06 07:17:45;;;;;;;168.18;116.85;;;179.70;2201.60;;;;;;5050081;28;20013;-77
2023/04/06 07:20:11;;;;;;;29.48;21.10;;;179.90;2176.00;;;;;;5049480;28;20025;-77
2023/04/06 07:22:43;;;;;;;41.35;28.50;;;204.80;2150.40;;;;;;5049739;28;20112;-78
2023/04/06 07:25:09;;;;;;;30.27;21.05;;;204.90;2099.20;;;;;;5049652;28;20028;-77
2023/04/06 07:27:35;;;;;;;18.65;13.95;;;205.20;2099.20;;;;;;5036857;28;20087;-78
2023/04/06 07:30:00;;;;;;;22.08;14.77;;;204.90;2099.20;;;;;;5049206;28;20048;-78
2023/04/06 07:32:26;;;;;;;16.92;11.32;;;205.10;2073.60;;;;;;5049858;28;20060;-75
2023/04/06 07:34:52;;;;;;;26.70;20.13;;;205.20;2073.60;;;;;;5049471;28;20025;-75
2023/04/06 07:37:18;;;;;;;26.48;21.67;;;205.50;2022.40;;;;;;5049262;28;20057;-78
2023/04/06 07:39:43;;;;;;;15.63;12.38;;;205.70;2022.40;;;;;;5049290;28;20078;-77
2023/04/06 07:42:09;;;;;;;15.00;11.02;;;230.50;1996.80;;;;;;5049552;28;20044;-76
2023/04/06 07:44:35;;;;;;;15.82;10.43;;;230.60;1996.80;;;;;;5035361;28;20155;-73
2023/04/06 07:47:01;;;;;;;16.02;10.90;;;230.60;1945.60;;;;;;5038580;28;20116;-73
2023/04/06 07:49:27;;;;;;;15.60;10.85;;;230.60;1945.60;;;;;;5046018;28;20020;-77
2023/04/06 07:51:52;;;;;;;15.38;10.48;;;230.80;1945.60;;;;;;5048976;28;20497;-71
2023/04/06 07:54:18;;;;;;;15.77;12.68;;;231.00;1920.00;;;;;;5048970;28;20032;-73
2023/04/06 07:56:44;;;;;;;14.27;10.55;;;231.20;1894.40;;;;;;5048914;28;20041;-73
2023/04/06 07:59:11;;;;;;;14.77;12.27;;;231.20;1868.80;;;;;;5049228;28;20040;-73
2023/04/06 08:01:37;;;;;;;17.48;12.57;;;256.20;1868.80;;;;;;5049087;28;20471;-73
2023/04/06 08:04:03;;;;;;;14.85;11.23;;;256.30;1868.80;;;;;;5048731;28;20045;-72
2023/04/06 08:06:28;;;;;;;19.20;12.32;;;256.30;1868.80;;;;;;5048764;28;20147;-73
2023/04/06 08:08:54;;;;;;;17.50;13.70;;;256.10;1868.80;;;;;;5028969;28;20028;-72
2023/04/06 08:11:20;;;;;;;26.83;17.23;;;256.60;1843.20;;;;;;5039676;28;20383;-75
2023/04/06 08:13:46;;;;;;;20.48;13.32;;;281.60;1868.80;;;;;;5049072;28;20047;-77
2023/04/06 08:16:12;;;;;;;21.35;15.63;;;281.70;1843.20;;;;;;5048782;28;20028;-78
2023/04/06 08:18:38;;;;;;;21.90;13.73;;;282.10;1817.60;;;;;;5048152;28;20491;-78
2023/04/06 08:21:03;;;;;;;21.00;14.30;;;282.10;1792.00;;;;;;5035038;28;20045;-78
2023/04/06 08:23:29;;;;;;;23.15;15.60;;;282.20;1792.00;;;;;;5047905;28;20033;-79
2023/04/06 08:25:55;;;;;;;20.58;16.38;;;282.50;1766.40;;;;;;5048917;28;20486;-71
2023/04/06 08:28:21;;;;;;;22.63;17.55;;;307.30;1792.00;;;;;;5048475;28;20029;-75
2023/04/06 08:30:47;;;;;;;25.90;18.20;;;307.40;1817.60;;;;;;5041677;28;20029;-76
2023/04/06 08:33:13;;;;;;;24.48;18.83;;;307.80;1766.40;;;;;;5046338;28;20029;-76
2023/04/06 08:35:39;;;;;;;24.58;17.95;;;308.00;1740.80;;;;;;5046010;28;20028;-76
2023/04/06 08:38:06;;;;;;;23.23;19.05;;;333.20;1766.40;;;;;;5046769;28;20052;-77
2023/04/06 08:40:39;;;;;;;22.15;17.73;;;333.20;1740.80;;;;;;5046952;28;20028;-76
2023/04/06 08:43:09;;;;;;;27.65;24.73;;;333.70;1689.60;;;;;;5041068;28;20045;-65
2023/04/06 08:45:35;;;;;;;20.83;17.52;;;358.70;1664.00;;;;;;5032472;28;20029;-66
2023/04/06 08:48:04;;;;;;;29.73;23.02;;;358.50;1638.40;;;;;;5040494;28;20179;-67
2023/04/06 08:50:31;;;;;;;25.05;19.13;;;358.70;1638.40;;;;;;5047403;28;20158;-64
2023/04/06 08:52:57;;;;;;;22.67;19.45;;;358.70;1638.40;;;;;;5046579;28;20544;-69
2023/04/06 08:55:23;;;;;;;18.58;15.05;;;358.60;1664.00;;;;;;5046824;28;20108;-65
2023/04/06 08:57:50;;;;;;;31.27;20.63;;;333.70;1664.00;;;;;;5046853;28;20386;-66
2023/04/06 09:00:17;;;;;;;17.52;14.95;;;333.60;1664.00;;;;;;5046729;28;20029;-68
2023/04/06 09:02:45;;;;;;;17.88;13.18;;;332.90;1689.60;;;;;;5046769;28;20134;-65
2023/04/06 09:05:12;;;;;;;19.65;13.70;;;333.40;1740.80;;;;;;5046707;28;20025;-65
2023/04/06 09:07:38;;;;;;;19.42;14.30;;;332.80;1766.40;;;;;;5046838;28;20391;-66
2023/04/06 09:10:07;;;;;;;19.55;14.35;;;332.80;1817.60;;;;;;5047126;28;20356;-64
2023/04/06 09:12:34;;;;;;;18.95;15.27;;;333.30;1715.20;;;;;;5045758;28;20493;-66
2023/04/06 09:15:01;;;;;;;19.27;14.48;;;333.60;1715.20;;;;;;5043247;28;20418;-65
2023/04/06 09:17:29;;;;;;;20.25;15.73;;;358.60;1664.00;;;;;;5046755;28;20078;-65
2023/04/06 09:19:56;;;;;;;19.48;15.77;;;358.80;1664.00;;;;;;5046676;28;20052;-64
2023/04/06 09:22:22;;;;;;;16.13;12.90;;;358.70;1638.40;;;;;;5043046;28;20034;-63
2023/04/06 09:24:50;;;;;;;28.23;19.80;;;358.50;1638.40;;;;;;5026431;28;20037;-64
2023/04/06 09:27:16;;;;;;;16.45;13.20;;;358.70;1587.20;;;;;;5018846;28;20085;-64
2023/04/06 09:29:43;;;;;;;18.05;11.82;;;358.40;1587.20;;;;;;5021356;28;20021;-64
2023/04/06 09:32:10;;;;;;;15.60;12.57;;;333.50;1612.80;;;;;;5026536;28;20127;-63
2023/04/06 09:34:39;;;;;;;21.98;14.00;;;333.50;1612.80;;;;;;5041461;28;20029;-65
2023/04/06 09:37:15;;;;;;;19.10;13.63;;;333.20;1638.40;;;;;;5022930;28;20159;-63
2023/04/06 09:39:41;;;;;;;16.45;11.48;;;308.10;1612.80;;;;;;5021412;28;20340;-63
2023/04/06 09:42:07;;;;;;;16.00;12.70;;;307.40;1612.80;;;;;;5037333;28;20479;-63
2023/04/06 09:44:33;;;;;;;17.13;11.45;;;307.30;1664.00;;;;;;5028315;28;20112;-63
2023/04/06 09:46:59;;;;;;;14.85;11.35;;;282.50;1638.40;;;;;;5027623;28;20104;-63
2023/04/06 09:49:33;;;;;;;19.52;13.00;;;282.50;1689.60;;;;;;5031195;28;20049;-64
2023/04/06 09:52:04;;;;;;;18.33;13.65;;;307.40;1689.60;;;;;;5024612;28;20133;-64
2023/04/06 09:54:30;;;;;;;17.77;12.82;;;307.20;1689.60;;;;;;5021153;28;20029;-63
2023/04/06 09:57:02;;;;;;;14.82;11.80;;;282.50;1664.00;;;;;;5027237;28;20449;-64
2023/04/06 09:59:48;;;;;;;14.57;9.70;;;282.50;1689.60;;;;;;5016276;28;20030;-62
2023/04/06 10:02:26;;;;;;;15.50;9.90;;;282.20;1638.40;;;;;;5021701;28;20121;-65
2023/04/06 10:05:19;;;;;;;12.70;11.40;;;282.20;1638.40;;;;;;5031916;28;20103;-59
2023/04/06 10:07:47;;;;;;;15.68;10.80;;;282.40;1715.20;;;;;;5045639;28;20021;-65
2023/04/06 10:10:14;;;;;;;16.13;11.60;;;307.30;1740.80;;;;;;5051351;28;20036;-65
2023/04/06 10:12:41;;;;;;;18.38;12.57;;;307.50;1715.20;;;;;;5051004;28;20027;-62
2023/04/06 10:15:08;;;;;;;19.73;13.55;;;282.40;1612.80;;;;;;5051119;28;20060;-62
2023/04/06 10:17:34;;;;;;;13.77;11.77;;;307.50;1689.60;;;;;;5051094;28;20075;-65
2023/04/06 10:20:07;;;;;;;18.63;14.15;;;307.60;1664.00;;;;;;5051066;28;20467;-63
2023/04/06 10:22:41;;;;;;;16.98;10.50;;;307.50;1689.60;;;;;;5051140;28;20033;-62
2023/04/06 10:25:08;;;;;;;12.77;11.10;;;307.80;1689.60;;;;;;5050879;28;20029;-62
2023/04/06 10:27:34;;;;;;;14.30;10.23;;;307.90;1638.40;;;;;;5050607;28;20021;-65
2023/04/06 10:30:06;;;;;;;21.65;15.32;;;308.10;1638.40;;;;;;5050585;28;20071;-65
2023/04/06 10:32:36;;;;;;;12.88;10.68;;;308.10;1612.80;;;;;;5050663;28;20036;-65
2023/04/06 10:35:10;;;;;;;17.48;12.35;;;308.00;1612.80;;;;;;5050699;28;20041;-65
2023/04/06 10:37:48;;;;;;;;;;;308.10;1612.80;;;;;;5050821;28;20045;-66
2023/04/06 10:40:21;;;;;;;18.15;11.55;;;308.10;1587.20;;;;;;5050506;28;19912;-65
2023/04/06 10:42:47;;;;;;;;;;;332.80;1638.40;;;;;;5049633;28;20116;-67
2023/04/06 10:45:25;;;;;;;20.52;14.38;;;332.80;1664.00;;;;;;5038825;28;20411;-62
2023/04/06 10:47:54;;;;;;;14.55;10.75;;;308.00;1638.40;;;;;;5050528;28;20021;-67
2023/04/06 10:50:20;;;;;;;17.48;11.35;;;307.60;1638.40;;;;;;5050444;28;20467;-66
2023/04/06 10:52:57;;;;;;;16.25;11.63;;;307.70;1587.20;;;;;;5050368;28;20104;-66
2023/04/06 10:55:25;;;;;;;23.48;18.13;;;308.00;1561.60;;;;;;5050209;28;20056;-66
2023/04/06 10:57:51;;;;;;;23.73;17.13;;;333.00;1587.20;;;;;;5050582;28;20104;-62
2023/04/06 11:00:19;;;;;;;24.63;18.63;;;307.80;1664.00;;;;;;5049885;28;20105;-62
2023/04/06 11:02:45;;;;;;;267.10;174.82;;;307.60;1638.40;;;;;;5050063;28;20127;-61
2023/04/06 11:05:12;;;;;;;79.30;44.80;;;307.40;1638.40;;;;;;5049963;28;20586;-62
2023/04/06 11:07:39;;;;;;;43.60;25.02;;;307.60;1664.00;;;;;;5049909;28;20491;-64
2023/04/06 11:10:07;;;;;;;21.02;16.67;;;307.60;1664.00;;;;;;5033804;28;20427;-66
2023/04/06 11:12:32;;;;;;;35.97;21.27;;;307.90;1612.80;;;;;;5040351;28;20021;-66
2023/04/06 11:15:04;;;;;;;45.17;29.10;;;307.80;1587.20;;;;;;5049949;28;20032;-62
2023/04/06 11:17:35;;;;;;;17.48;13.27;;;307.90;1612.80;;;;;;5050218;28;20035;-63
2023/04/06 11:20:02;;;;;;;18.90;14.68;;;332.80;1612.80;;;;;;5049440;28;20013;-62
2023/04/06 11:22:28;;;;;;;18.70;12.20;;;308.10;1587.20;;;;;;5049956;28;20037;-68
2023/04/06 11:25:06;;;;;;;23.98;16.45;;;308.00;1536.00;;;;;;5048924;28;20371;-66
2023/04/06 11:27:33;;;;;;;19.67;13.60;;;307.80;1561.60;;;;;;5050103;28;20025;-66
2023/04/06 11:30:00;;;;;;;19.63;14.85;;;307.70;1587.20;;;;;;5049505;28;20027;-66
2023/04/06 11:32:26;;;;;;;17.92;13.05;;;307.80;1612.80;;;;;;5049515;28;20387;-67
2023/04/06 11:34:52;;;;;;;16.10;12.55;;;307.80;1561.60;;;;;;5049541;28;20028;-66
2023/04/06 11:37:18;;;;;;;26.55;17.60;;;307.90;1587.20;;;;;;5049571;28;20036;-67
2023/04/06 11:39:43;;;;;;;25.15;18.48;;;308.10;1561.60;;;;;;5049828;28;20056;-65
2023/04/06 11:42:09;;;;;;;30.88;22.63;;;332.80;1612.80;;;;;;5049351;28;20021;-66
2023/04/06 11:44:41;;;;;;;25.23;20.83;;;307.90;1587.20;;;;;;5049523;28;20021;-66
2023/04/06 11:47:09;;;;;;;20.02;14.45;;;307.90;1587.20;;;;;;5047348;28;20040;-62
2023/04/06 11:49:40;;;;;;;28.45;22.23;;;307.60;1587.20;;;;;;5049069;28;20029;-64
2023/04/06 11:52:15;;;;;;;15.43;12.43;;;307.80;1561.60;;;;;;5049543;28;20025;-67
2023/04/06 11:54:40;;;;;;;29.75;21.95;;;307.60;1561.60;;;;;;5049321;28;20032;-61
2023/04/06 11:57:08;;;;;;;25.20;17.25;;;307.40;1612.80;;;;;;5049286;28;20070;-61